createdAt,value
2023-03-21T00:01:34.500Z,98888.70
2023-03-21T00:03:38.192Z,98890.08
2023-03-21T00:05:43.093Z,98890.21
2023-03-21T00:07:45.716Z,98893.30
2023-03-21T00:09:59.105Z,98895.59
2023-03-21T00:12:09.772Z,98897.23
2023-03-21T00:14:18.966Z,98894.31
2023-03-21T00:16:25.180Z,98894.83
2023-03-21T00:18:29.399Z,98894.27
2023-03-21T00:20:41.179Z,98892.98
2023-03-21T00:22:45.245Z,98891.80
2023-03-21T00:24:47.751Z,98891.67
2023-03-21T00:26:51.109Z,98890.52
2023-03-21T00:28:53.712Z,98890.81
2023-03-21T00:31:00.300Z,98885.50
2023-03-21T00:33:19.691Z,98884.23
2023-03-21T00:35:57.978Z,98886.27
2023-03-21T00:38:00.672Z,98884.49
2023-03-21T00:40:16.254Z,98880.83
2023-03-21T00:42:26.382Z,98879.61
2023-03-21T00:44:29.187Z,98877.95
2023-03-21T00:46:42.721Z,98876.41
2023-03-21T00:48:50.682Z,98873.04
2023-03-21T00:51:02.978Z,98870.44
2023-03-21T00:53:08.943Z,98867.68
2023-03-21T00:55:18.062Z,98864.31
2023-03-21T00:57:29.296Z,98861.77
2023-03-21T00:59:39.375Z,98861.20
2023-03-21T01:01:41.932Z,98860.84
2023-03-21T01:03:51.903Z,98862.95
2023-03-21T01:06:07.568Z,98860.58
2023-03-21T01:08:24.484Z,98855.97
2023-03-21T01:10:29.368Z,98852.92
2023-03-21T01:12:31.968Z,98849.86
2023-03-21T01:14:34.738Z,98848.44
2023-03-21T01:16:38.532Z,98849.53
2023-03-21T01:18:42.056Z,98851.45
2023-03-21T01:20:45.961Z,98849.23
2023-03-21T01:22:49.092Z,98850.04
2023-03-21T01:24:58.604Z,98848.13
2023-03-21T01:27:05.997Z,98846.27
2023-03-21T01:29:09.020Z,98840.22
2023-03-21T01:31:14.891Z,98843.35
2023-03-21T01:33:19.250Z,98840.15
2023-03-21T01:35:22.040Z,98839.34
2023-03-21T01:37:26.559Z,98839.50
2023-03-21T01:39:29.363Z,98839.36
2023-03-21T01:41:44.336Z,98840.75
2023-03-21T01:43:56.160Z,98837.02
2023-03-21T01:46:10.878Z,98835.42
2023-03-21T01:48:31.896Z,98834.61
2023-03-21T01:50:37.044Z,98834.80
2023-03-21T01:53:04.494Z,98833.35
2023-03-21T01:55:14.951Z,98832.65
2023-03-21T01:57:43.525Z,98829.63
2023-03-21T01:59:55.374Z,98827.93
2023-03-21T02:02:31.404Z,98823.93
2023-03-21T02:04:56.246Z,98825.50
2023-03-21T02:07:08.999Z,98824.86
2023-03-21T02:09:28.052Z,98820.58
2023-03-21T02:11:32.239Z,98820.85
2023-03-21T02:13:36.337Z,98819.20
2023-03-21T02:15:42.054Z,98818.40
2023-03-21T02:18:20.866Z,98811.41
2023-03-21T02:20:52.258Z,98809.81
2023-03-21T02:23:16.266Z,98810.52
2023-03-21T02:25:43.345Z,98811.16
2023-03-21T02:27:55.869Z,98807.91
2023-03-21T02:29:58.348Z,98806.80
2023-03-21T02:32:25.390Z,98808.79
2023-03-21T02:35:00.823Z,98808.71
2023-03-21T02:37:36.637Z,98807.10
2023-03-21T02:39:56.371Z,98805.87
2023-03-21T02:41:59.503Z,98807.29
2023-03-21T02:44:31.562Z,98815.54
2023-03-21T02:46:49.177Z,98812.66
2023-03-21T02:49:03.159Z,98815.02
2023-03-21T02:51:09.315Z,98813.41
2023-03-21T02:53:28.146Z,98815.50
2023-03-21T02:55:35.954Z,98815.30
2023-03-21T02:57:43.942Z,98815.59
2023-03-21T02:59:55.673Z,98820.13
2023-03-21T03:02:06.052Z,98820.51
2023-03-21T03:04:23.055Z,98822.30
2023-03-21T03:06:33.346Z,98818.28
2023-03-21T03:09:08.612Z,98818.31
2023-03-21T03:11:30.070Z,98815.25
2023-03-21T03:13:35.468Z,98813.11
2023-03-21T03:16:02.072Z,98814.52
2023-03-21T03:18:21.429Z,98808.30
2023-03-21T03:21:07.769Z,98805.18
2023-03-21T03:23:19.246Z,98805.40
2023-03-21T03:25:43.280Z,98802.67
2023-03-21T03:27:51.304Z,98798.89
2023-03-21T03:29:55.505Z,98800.98
2023-03-21T03:32:25.753Z,98797.30
2023-03-21T03:34:40.605Z,98798.81
2023-03-21T03:36:51.552Z,98797.14
2023-03-21T03:38:56.248Z,98799.40
2023-03-21T03:41:08.121Z,98793.67
2023-03-21T03:43:24.463Z,98793.56
2023-03-21T03:45:35.187Z,98794.13
2023-03-21T03:47:56.025Z,98794.38
2023-03-21T03:50:13.871Z,98791.77
2023-03-21T03:52:23.788Z,98791.44
2023-03-21T03:54:39.357Z,98792.86
2023-03-21T03:56:43.472Z,98790.93
2023-03-21T03:58:46.446Z,98790.54
2023-03-21T04:00:54.382Z,98792.23
2023-03-21T04:02:59.163Z,98792.56
2023-03-21T04:05:04.184Z,98788.55
2023-03-21T04:07:07.882Z,98790.83
2023-03-21T04:09:20.516Z,98788.02
2023-03-21T04:11:28.233Z,98786.20
2023-03-21T04:13:31.491Z,98789.00
2023-03-21T04:15:44.528Z,98792.45
2023-03-21T04:17:50.596Z,98788.73
2023-03-21T04:19:59.980Z,98789.59
2023-03-21T04:22:10.030Z,98789.86
2023-03-21T04:24:15.294Z,98788.80
2023-03-21T04:26:18.077Z,98786.09
2023-03-21T04:28:37.286Z,98787.10
2023-03-21T04:31:05.288Z,98787.39
2023-03-21T04:33:18.401Z,98785.83
2023-03-21T04:35:27.263Z,98787.10
2023-03-21T04:37:33.933Z,98786.14
2023-03-21T04:39:37.174Z,98786.69
2023-03-21T04:41:46.801Z,98786.30
2023-03-21T04:43:49.643Z,98788.84
2023-03-21T04:45:52.634Z,98792.52
2023-03-21T04:47:57.353Z,98791.88
2023-03-21T04:50:00.804Z,98797.21
2023-03-21T04:52:03.771Z,98797.80
2023-03-21T04:56:10.288Z,98801.13
2023-03-21T04:58:13.299Z,98798.77
2023-03-21T05:00:16.645Z,98792.13
2023-03-21T05:02:21.271Z,98789.55
2023-03-21T05:04:25.174Z,98789.05
2023-03-21T05:06:28.315Z,98785.40
2023-03-21T05:08:32.218Z,98782.08
2023-03-21T05:10:36.734Z,98785.29
2023-03-21T05:12:39.808Z,98790.40
2023-03-21T05:14:42.410Z,98790.89
2023-03-21T05:16:53.504Z,98792.91
2023-03-21T05:19:10.782Z,98793.98
2023-03-21T05:21:18.295Z,98793.12
2023-03-21T05:23:22.946Z,98792.95
2023-03-21T05:25:35.425Z,98792.48
2023-03-21T05:27:46.225Z,98792.65
2023-03-21T05:29:51.118Z,98795.42
2023-03-21T05:31:58.749Z,98796.63
2023-03-21T05:34:08.424Z,98805.44
2023-03-21T05:36:12.442Z,98801.50
2023-03-21T05:38:15.235Z,98801.28
2023-03-21T05:40:25.801Z,98805.64
2023-03-21T05:42:33.322Z,98804.02
2023-03-21T05:44:37.171Z,98804.89
2023-03-21T05:46:40.468Z,98803.52
2023-03-21T05:48:43.163Z,98805.73
2023-03-21T05:50:50.784Z,98808.54
2023-03-21T05:52:56.088Z,98810.13
2023-03-21T05:55:04.027Z,98810.41
2023-03-21T05:57:07.200Z,98813.11
2023-03-21T05:59:34.424Z,98810.46
2023-03-21T06:01:37.502Z,98810.20
2023-03-21T06:03:44.982Z,98809.65
2023-03-21T06:06:07.819Z,98815.52
2023-03-21T06:08:14.529Z,98813.88
2023-03-21T06:10:21.256Z,98811.89
2023-03-21T06:12:24.568Z,98812.34
2023-03-21T06:14:59.725Z,98812.20
2023-03-21T06:17:25.746Z,98817.00
2023-03-21T06:19:32.779Z,98817.41
2023-03-21T06:21:45.831Z,98811.90
2023-03-21T06:23:52.924Z,98817.97
2023-03-21T06:25:55.814Z,98816.11
2023-03-21T06:28:02.257Z,98816.61
2023-03-21T06:30:07.111Z,98815.82
2023-03-21T06:32:14.289Z,98816.29
2023-03-21T06:34:17.277Z,98816.41
2023-03-21T06:36:30.292Z,98820.20
2023-03-21T06:38:39.868Z,98820.91
2023-03-21T06:40:42.684Z,98823.46
2023-03-21T06:42:46.053Z,98828.52
2023-03-21T06:44:49.566Z,98829.05
2023-03-21T06:46:54.204Z,98832.34
2023-03-21T06:48:57.805Z,98832.80
2023-03-21T06:51:01.102Z,98830.06
2023-03-21T06:53:05.151Z,98824.98
2023-03-21T06:55:10.373Z,98819.97
2023-03-21T06:57:14.359Z,98830.02
2023-03-21T06:59:17.589Z,98822.80
2023-03-21T07:01:35.518Z,98825.48
2023-03-21T07:03:41.809Z,98824.67
2023-03-21T07:05:44.794Z,98828.63
2023-03-21T07:07:51.491Z,98827.64
2023-03-21T07:09:56.174Z,98827.21
2023-03-21T07:11:59.673Z,98824.54
2023-03-21T07:14:12.161Z,98826.77
2023-03-21T07:16:17.108Z,98825.16
2023-03-21T07:18:20.631Z,98822.68
2023-03-21T07:20:23.720Z,98822.92
2023-03-21T07:22:27.056Z,98823.52
2023-03-21T07:24:29.883Z,98821.20
2023-03-21T07:26:33.238Z,98821.53
2023-03-21T07:28:36.187Z,98824.41
2023-03-21T07:30:44.020Z,98824.66
2023-03-21T07:32:53.929Z,98825.33
2023-03-21T07:35:07.700Z,98821.06
2023-03-21T07:37:10.853Z,98819.81
2023-03-21T07:39:13.495Z,98818.39
2023-03-21T07:43:20.514Z,98818.86
2023-03-21T07:45:27.521Z,98813.88
2023-03-21T07:47:30.831Z,98816.46
2023-03-21T07:49:37.727Z,98815.25
2023-03-21T07:51:40.465Z,98814.02
2023-03-21T07:53:44.286Z,98814.27
2023-03-21T07:55:56.383Z,98813.38
2023-03-21T07:57:59.431Z,98813.22
2023-03-21T08:00:04.107Z,98811.56
2023-03-21T08:02:17.380Z,98814.27
2023-03-21T08:04:22.534Z,98815.61
2023-03-21T08:06:28.770Z,98816.64
2023-03-21T08:08:31.632Z,98815.95
2023-03-21T08:10:36.589Z,98817.20
2023-03-21T08:12:41.273Z,98816.69
2023-03-21T08:14:43.956Z,98820.21
2023-03-21T08:16:46.743Z,98819.27
2023-03-21T08:18:49.778Z,98820.96
2023-03-21T08:20:57.096Z,98823.00
2023-03-21T08:23:00.674Z,98825.35
2023-03-21T08:25:07.058Z,98823.96
2023-03-21T08:27:10.019Z,98821.30
2023-03-21T08:29:13.796Z,98817.33
2023-03-21T08:31:20.306Z,98812.07
2023-03-21T08:33:26.552Z,98807.99
2023-03-21T08:35:41.138Z,98805.52
2023-03-21T08:37:44.991Z,98806.59
2023-03-21T08:39:48.452Z,98805.98
2023-03-21T08:41:51.470Z,98806.90
2023-03-21T08:43:54.199Z,98809.83
2023-03-21T08:45:57.167Z,98802.84
2023-03-21T08:47:59.970Z,98804.04
2023-03-21T08:50:03.874Z,98801.09
2023-03-21T08:52:07.059Z,98799.98
2023-03-21T08:54:19.787Z,98804.52
2023-03-21T08:56:22.632Z,98802.45
2023-03-21T08:58:25.552Z,98807.54
2023-03-21T09:00:28.943Z,98798.91
2023-03-21T09:02:31.712Z,98798.46
2023-03-21T09:04:34.826Z,98798.28
2023-03-21T09:06:38.612Z,98798.73
2023-03-21T09:08:41.995Z,98802.01
2023-03-21T09:10:44.667Z,98802.80
2023-03-21T09:12:48.359Z,98803.64
2023-03-21T09:14:53.252Z,98806.31
2023-03-21T09:16:56.205Z,98807.67
2023-03-21T09:19:00.129Z,98807.92
2023-03-21T09:21:12.735Z,98807.89
2023-03-21T09:23:17.183Z,98801.11
2023-03-21T09:25:21.016Z,98805.01
2023-03-21T09:27:25.945Z,98804.04
2023-03-21T09:29:29.624Z,98803.30
2023-03-21T09:31:33.259Z,98806.05
2023-03-21T09:33:36.441Z,98807.52
2023-03-21T09:35:39.423Z,98803.99
2023-03-21T09:37:43.939Z,98802.54
2023-03-21T09:39:46.895Z,98801.40
2023-03-21T09:42:12.598Z,98800.76
2023-03-21T09:44:59.959Z,98799.38
2023-03-21T09:47:33.130Z,98799.77
2023-03-21T09:49:40.841Z,98795.77
2023-03-21T09:51:52.064Z,98791.71
2023-03-21T09:53:57.786Z,98787.38
2023-03-21T09:56:02.550Z,98790.65
2023-03-21T09:58:32.006Z,98787.36
2023-03-21T10:00:40.691Z,98783.94
2023-03-21T10:02:49.479Z,98786.86
2023-03-21T10:04:53.043Z,98784.90
2023-03-21T10:07:02.230Z,98780.29
2023-03-21T10:09:11.387Z,98776.89
2023-03-21T10:11:24.064Z,98776.50
2023-03-21T10:13:33.840Z,98771.82
2023-03-21T10:15:38.138Z,98764.46
2023-03-21T10:17:43.790Z,98761.85
2023-03-21T10:19:50.297Z,98756.74
2023-03-21T10:22:01.195Z,98755.11
2023-03-21T10:24:12.309Z,98751.92
2023-03-21T10:26:21.094Z,98755.73
2023-03-21T10:28:42.331Z,98752.54
2023-03-21T10:30:59.071Z,98749.21
2023-03-21T10:33:05.858Z,98744.45
2023-03-21T10:35:13.507Z,98744.61
2023-03-21T10:37:17.614Z,98742.38
2023-03-21T10:39:29.943Z,98740.45
2023-03-21T10:41:33.930Z,98733.70
2023-03-21T10:43:42.163Z,98731.27
2023-03-21T10:45:47.338Z,98729.98
2023-03-21T10:47:51.666Z,98728.06
2023-03-21T10:50:07.173Z,98727.34
2023-03-21T10:52:13.794Z,98723.11
2023-03-21T10:54:32.626Z,98719.35
2023-03-21T10:56:40.917Z,98717.13
2023-03-21T10:58:48.150Z,98717.08
2023-03-21T11:01:00.724Z,98712.34
2023-03-21T11:03:05.525Z,98709.20
2023-03-21T11:05:27.531Z,98713.98
2023-03-21T11:07:31.803Z,98714.91
2023-03-21T11:10:03.286Z,98712.75
2023-03-21T11:12:15.777Z,98712.98
2023-03-21T11:14:47.589Z,98713.09
2023-03-21T11:16:51.549Z,98715.53
2023-03-21T11:19:01.520Z,98713.75
2023-03-21T11:21:07.442Z,98713.86
2023-03-21T11:23:13.016Z,98711.52
2023-03-21T11:25:42.713Z,98712.86
2023-03-21T11:27:51.865Z,98702.89
2023-03-21T11:29:57.960Z,98699.95
2023-03-21T11:32:02.474Z,98696.33
2023-03-21T11:34:09.749Z,98697.79
2023-03-21T11:36:18.132Z,98696.23
2023-03-21T11:38:29.048Z,98698.41
2023-03-21T11:40:36.775Z,98696.73
2023-03-21T11:42:43.468Z,98693.53
2023-03-21T11:44:47.696Z,98691.11
2023-03-21T11:46:57.498Z,98696.01
2023-03-21T11:49:04.325Z,98692.52
2023-03-21T11:51:27.854Z,98689.39
2023-03-21T11:53:46.648Z,98683.44
2023-03-21T11:56:20.638Z,98672.83
2023-03-21T11:59:01.197Z,98673.77
2023-03-21T12:01:51.955Z,98663.55
2023-03-21T12:04:26.178Z,98662.94
2023-03-21T12:06:37.007Z,98659.48
2023-03-21T12:09:04.049Z,98657.02
2023-03-21T12:11:48.259Z,98657.30
2023-03-21T12:14:40.226Z,98653.59
2023-03-21T12:17:06.403Z,98651.03
2023-03-21T12:19:42.746Z,98646.49
2023-03-21T12:21:47.550Z,98643.36
2023-03-21T12:24:10.453Z,98642.14
2023-03-21T12:26:29.637Z,98638.09
2023-03-21T12:28:47.230Z,98636.06
2023-03-21T12:31:04.476Z,98631.59
2023-03-21T12:33:21.494Z,98629.85
2023-03-21T12:36:03.214Z,98625.35
2023-03-21T12:38:13.543Z,98624.70
2023-03-21T12:40:22.246Z,98623.32
2023-03-21T12:42:42.627Z,98619.55
2023-03-21T12:44:52.126Z,98616.11
2023-03-21T12:47:30.804Z,98613.41
2023-03-21T12:49:36.702Z,98608.02
2023-03-21T12:51:47.695Z,98605.23
2023-03-21T12:54:00.229Z,98604.89
2023-03-21T12:56:12.020Z,98597.09
2023-03-21T12:58:19.856Z,98597.81
2023-03-21T13:04:09.720Z,98597.16
2023-03-21T13:06:15.566Z,98593.91
2023-03-21T13:08:21.183Z,98590.20
2023-03-21T13:10:24.424Z,98591.09
2023-03-21T13:13:10.423Z,98587.20
2023-03-21T13:15:32.108Z,98578.33
2023-03-21T13:17:45.374Z,98578.92
2023-03-21T13:19:59.509Z,98574.54
2023-03-21T13:22:28.693Z,98568.46
2023-03-21T13:24:56.401Z,98561.80
2023-03-21T13:27:06.931Z,98564.65
2023-03-21T13:29:14.520Z,98559.39
2023-03-21T13:31:22.404Z,98562.42
2023-03-21T13:33:30.235Z,98558.69
2023-03-21T13:35:38.258Z,98557.17
2023-03-21T13:37:49.299Z,98554.02
2023-03-21T13:39:52.219Z,98551.84
2023-03-21T13:41:56.190Z,98553.34
2023-03-21T13:44:18.853Z,98550.66
2023-03-21T13:46:34.133Z,98548.55
2023-03-21T13:48:59.384Z,98546.02
2023-03-21T13:51:04.730Z,98543.40
2023-03-21T13:53:16.076Z,98538.45
2023-03-21T13:55:20.616Z,98533.52
2023-03-21T13:57:33.304Z,98532.51
2023-03-21T13:59:41.008Z,98532.61
2023-03-21T14:02:00.168Z,98528.17
2023-03-21T14:04:15.565Z,98524.73
2023-03-21T14:06:18.960Z,98526.02
2023-03-21T14:08:34.803Z,98518.92
2023-03-21T14:10:43.529Z,98518.32
2023-03-21T14:12:47.384Z,98519.04
2023-03-21T14:15:15.812Z,98519.83
2023-03-21T14:17:26.146Z,98518.24
2023-03-21T14:19:31.196Z,98520.41
2023-03-21T14:21:36.145Z,98516.16
2023-03-21T14:23:39.374Z,98514.02
2023-03-21T14:25:47.497Z,98511.46
2023-03-21T14:27:55.615Z,98508.27
2023-03-21T14:29:59.350Z,98505.11
2023-03-21T14:32:05.655Z,98502.80
2023-03-21T14:34:12.528Z,98500.44
2023-03-21T14:36:23.522Z,98496.20
2023-03-21T14:38:32.646Z,98487.16
2023-03-21T14:40:36.149Z,98486.12
2023-03-21T14:42:47.460Z,98487.89
2023-03-21T14:44:55.986Z,98484.24
2023-03-21T14:47:06.815Z,98485.95
2023-03-21T14:49:25.761Z,98485.20
2023-03-21T14:51:29.715Z,98481.92
2023-03-21T14:53:36.953Z,98482.27
2023-03-21T14:55:46.282Z,98480.00
2023-03-21T14:57:49.272Z,98481.98
2023-03-21T14:59:55.866Z,98484.70
2023-03-21T15:02:03.646Z,98482.49
2023-03-21T15:04:07.430Z,98476.48
2023-03-21T15:06:21.128Z,98470.23
2023-03-21T15:08:26.692Z,98475.33
2023-03-21T15:10:31.757Z,98476.88
2023-03-21T15:12:34.706Z,98473.84
2023-03-21T15:14:38.464Z,98475.31
2023-03-21T15:16:41.473Z,98475.61
2023-03-21T15:18:45.334Z,98475.06
2023-03-21T15:20:51.189Z,98474.05
2023-03-21T15:23:03.498Z,98474.59
2023-03-21T15:25:08.884Z,98473.86
2023-03-21T15:27:17.405Z,98470.42
2023-03-21T15:29:20.013Z,98473.39
2023-03-21T15:31:25.716Z,98475.07
2023-03-21T15:33:28.552Z,98478.95
2023-03-21T15:35:38.846Z,98477.88
2023-03-21T15:37:41.836Z,98472.04
2023-03-21T15:39:49.122Z,98472.64
2023-03-21T15:42:01.579Z,98472.52
2023-03-21T15:44:10.152Z,98470.45
2023-03-21T15:46:16.310Z,98472.11
2023-03-21T15:48:29.564Z,98472.38
2023-03-21T15:50:37.664Z,98471.30
2023-03-21T15:52:41.160Z,98470.42
2023-03-21T15:54:48.076Z,98469.30
2023-03-21T15:57:03.229Z,98475.39
2023-03-21T15:59:14.168Z,98477.32
2023-03-21T16:01:19.852Z,98477.61
2023-03-21T16:03:30.404Z,98474.11
2023-03-21T16:05:34.127Z,98476.58
2023-03-21T16:07:36.657Z,98476.33
2023-03-21T16:09:42.988Z,98476.50
2023-03-21T16:11:50.962Z,98484.50
2023-03-21T16:13:54.942Z,98484.55
2023-03-21T16:15:57.532Z,98486.43
2023-03-21T16:18:03.951Z,98482.63
2023-03-21T16:20:20.201Z,98485.77
2023-03-21T16:22:22.790Z,98488.90
2023-03-21T16:24:25.439Z,98487.81
2023-03-21T16:26:31.622Z,98491.51
2023-03-21T16:28:34.490Z,98493.22
2023-03-21T16:30:38.584Z,98493.72
2023-03-21T16:32:41.760Z,98498.30
2023-03-21T16:34:46.457Z,98493.29
2023-03-21T16:36:49.306Z,98496.98
2023-03-21T16:38:53.105Z,98499.38
2023-03-21T16:40:55.893Z,98496.64
2023-03-21T16:42:58.551Z,98501.88
2023-03-21T16:45:01.343Z,98503.83
2023-03-21T16:47:04.172Z,98503.98
2023-03-21T16:49:18.543Z,98506.13
2023-03-21T16:51:30.526Z,98507.37
2023-03-21T16:53:33.007Z,98509.40
2023-03-21T16:55:37.132Z,98511.17
2023-03-21T16:57:40.318Z,98519.71
2023-03-21T16:59:43.181Z,98518.74
2023-03-21T17:01:47.824Z,98522.60
2023-03-21T17:03:50.724Z,98525.05
2023-03-21T17:05:53.626Z,98525.88
2023-03-21T17:07:56.767Z,98522.26
2023-03-21T17:09:59.417Z,98529.29
2023-03-21T17:12:02.426Z,98530.52
2023-03-21T17:14:05.034Z,98532.30
2023-03-21T17:16:09.610Z,98533.29
2023-03-21T17:18:13.322Z,98532.92
2023-03-21T17:20:25.959Z,98530.83
2023-03-21T17:22:28.615Z,98529.30
2023-03-21T17:24:31.647Z,98532.84
2023-03-21T17:26:34.380Z,98531.48
2023-03-21T17:28:37.891Z,98529.89
2023-03-21T17:30:41.437Z,98530.20
2023-03-21T17:32:44.315Z,98533.47
2023-03-21T17:34:48.478Z,98535.19
2023-03-21T17:36:51.604Z,98533.44
2023-03-21T17:38:55.383Z,98535.73
2023-03-21T17:41:00.599Z,98534.14
2023-03-21T17:43:03.527Z,98536.55
2023-03-21T17:45:07.072Z,98538.23
2023-03-21T17:47:12.974Z,98538.85
2023-03-21T17:49:16.505Z,98537.90
2023-03-21T17:51:20.331Z,98535.08
2023-03-21T17:53:23.535Z,98537.38
2023-03-21T17:55:26.344Z,98535.63
2023-03-21T17:57:28.867Z,98536.55
2023-03-21T17:59:31.625Z,98531.63
2023-03-21T18:01:35.419Z,98535.39
2023-03-21T18:03:38.427Z,98534.05
2023-03-21T18:05:41.086Z,98533.11
2023-03-21T18:10:12.858Z,98535.27
2023-03-21T18:12:15.393Z,98536.81
2023-03-21T18:14:27.014Z,98538.90
2023-03-21T18:16:31.500Z,98536.73
2023-03-21T18:18:34.103Z,98536.88
2023-03-21T18:20:54.266Z,98534.66
2023-03-21T18:22:57.314Z,98530.44
2023-03-21T18:25:00.291Z,98527.34
2023-03-21T18:27:03.993Z,98532.02
2023-03-21T18:30:13.090Z,98527.80
2023-03-21T18:31:29.887Z,98532.44
2023-03-21T18:33:33.658Z,98532.35
2023-03-21T18:35:38.618Z,98530.35
2023-03-21T18:37:42.359Z,98529.89
2023-03-21T18:39:46.277Z,98529.61
2023-03-21T18:41:48.864Z,98534.48
2023-03-21T18:44:02.672Z,98538.70
2023-03-21T18:46:13.009Z,98541.95
2023-03-21T18:48:16.393Z,98543.98
2023-03-21T18:50:20.974Z,98542.75
2023-03-21T18:52:26.579Z,98542.05
2023-03-21T18:54:30.262Z,98541.44
2023-03-21T18:57:26.803Z,98541.73
2023-03-21T18:58:57.161Z,98543.61
2023-03-21T19:01:00.785Z,98549.52
2023-03-21T19:03:18.819Z,98548.28
2023-03-21T19:05:25.542Z,98554.14
2023-03-21T19:07:28.169Z,98555.45
2023-03-21T19:09:32.178Z,98560.48
2023-03-21T19:11:35.876Z,98558.23
2023-03-21T19:13:38.696Z,98551.73
2023-03-21T19:15:42.117Z,98547.21
2023-03-21T19:18:30.341Z,98544.55
2023-03-21T19:20:08.717Z,98551.54
2023-03-21T19:22:12.768Z,98551.79
2023-03-21T19:24:27.114Z,98544.37
2023-03-21T19:26:31.145Z,98544.04
2023-03-21T19:28:33.789Z,98543.46
2023-03-21T19:30:36.782Z,98542.08
2023-03-21T19:32:39.786Z,98545.39
2023-03-21T19:34:42.538Z,98545.22
2023-03-21T19:36:50.748Z,98545.20
2023-03-21T19:38:53.929Z,98545.30
2023-03-21T19:41:00.482Z,98545.65
2023-03-21T19:43:21.666Z,98543.70
2023-03-21T19:45:26.505Z,98534.95
2023-03-21T19:47:29.044Z,98537.53
2023-03-21T19:50:00.725Z,98539.86
2023-03-21T19:51:56.042Z,98536.13
2023-03-21T19:53:59.992Z,98534.34
2023-03-21T19:56:04.891Z,98540.82
2023-03-21T19:58:16.143Z,98541.26
2023-03-21T20:00:20.019Z,98542.65
2023-03-21T20:02:35.094Z,98544.48
2023-03-21T20:04:39.443Z,98545.61
2023-03-21T20:06:42.106Z,98546.38
2023-03-21T20:11:07.495Z,98549.84
2023-03-21T20:13:10.129Z,98550.73
2023-03-21T20:15:19.199Z,98550.69
2023-03-21T20:17:22.934Z,98550.73
2023-03-21T20:19:25.775Z,98549.63
2023-03-21T20:21:34.061Z,98550.21
2023-03-21T20:23:43.990Z,98545.38
2023-03-21T20:25:47.144Z,98547.89
2023-03-21T20:28:09.210Z,98548.27
2023-03-21T20:30:16.123Z,98545.76
2023-03-21T20:32:18.834Z,98546.86
2023-03-21T20:34:21.751Z,98546.00
2023-03-21T20:36:39.417Z,98550.96
2023-03-21T20:38:46.706Z,98550.67
2023-03-21T20:40:51.025Z,98550.09
2023-03-21T20:42:56.185Z,98547.99
2023-03-21T20:45:00.813Z,98546.41
2023-03-21T20:47:05.533Z,98544.58
2023-03-21T20:49:08.137Z,98542.70
2023-03-21T20:52:14.788Z,98545.38
2023-03-21T20:53:37.513Z,98544.18
2023-03-21T20:55:40.433Z,98537.38
2023-03-21T20:57:44.325Z,98536.92
2023-03-21T20:59:48.545Z,98539.18
2023-03-21T21:01:51.170Z,98540.81
2023-03-21T21:03:57.544Z,98539.58
2023-03-21T21:06:00.496Z,98538.18
2023-03-21T21:08:03.775Z,98536.29
2023-03-21T21:10:12.760Z,98538.33
2023-03-21T21:12:17.538Z,98536.34
2023-03-21T21:14:20.219Z,98533.30
2023-03-21T21:16:23.064Z,98533.38
2023-03-21T21:18:25.932Z,98532.11
2023-03-21T21:20:28.721Z,98533.09
2023-03-21T21:22:31.571Z,98536.57
2023-03-21T21:24:36.189Z,98540.06
2023-03-21T21:26:41.012Z,98540.63
2023-03-21T21:28:47.909Z,98533.90
2023-03-21T21:30:58.670Z,98529.57
2023-03-21T21:33:01.653Z,98523.95
2023-03-21T21:35:04.528Z,98523.45
2023-03-21T21:37:07.378Z,98525.10
2023-03-21T21:39:09.847Z,98522.30
2023-03-21T21:41:18.699Z,98521.46
2023-03-21T21:43:27.245Z,98514.62
2023-03-21T21:45:29.974Z,98512.75
2023-03-21T21:47:32.950Z,98513.60
2023-03-21T21:49:35.950Z,98508.88
2023-03-21T21:51:41.909Z,98508.55
2023-03-21T21:53:46.319Z,98515.11
2023-03-21T21:55:50.234Z,98512.66
2023-03-21T21:57:58.083Z,98513.48
2023-03-21T22:00:02.032Z,98515.27
2023-03-21T22:02:14.640Z,98523.64
2023-03-21T22:04:18.155Z,98526.75
2023-03-21T22:06:21.016Z,98526.83
2023-03-21T22:08:23.640Z,98525.62
2023-03-21T22:10:27.587Z,98527.86
2023-03-21T22:12:30.471Z,98524.65
2023-03-21T22:14:34.087Z,98525.67
2023-03-21T22:16:37.775Z,98530.74
2023-03-21T22:18:40.455Z,98532.66
2023-03-21T22:20:44.019Z,98525.13
2023-03-21T22:22:47.423Z,98520.80
2023-03-21T22:24:50.333Z,98521.70
2023-03-21T22:26:59.236Z,98520.92
2023-03-21T22:29:02.030Z,98522.46
2023-03-21T22:31:17.651Z,98521.79
2023-03-21T22:33:22.247Z,98519.00
2023-03-21T22:35:24.815Z,98513.55
2023-03-21T22:37:30.666Z,98510.30
2023-03-21T22:39:33.420Z,98517.70
2023-03-21T22:41:36.051Z,98522.22
2023-03-21T22:43:38.674Z,98523.13
2023-03-21T22:45:41.891Z,98524.25
2023-03-21T22:47:44.539Z,98526.84
2023-03-21T22:49:47.158Z,98525.20
2023-03-21T22:51:49.768Z,98523.45
2023-03-21T22:53:52.502Z,98525.39
2023-03-21T22:55:55.763Z,98521.27
2023-03-21T22:57:58.356Z,98520.86
2023-03-21T23:00:01.396Z,98522.73
2023-03-21T23:02:04.048Z,98518.36
2023-03-21T23:04:06.990Z,98515.15
2023-03-21T23:06:09.731Z,98516.28
2023-03-21T23:08:12.941Z,98517.81
2023-03-21T23:10:15.610Z,98519.15
2023-03-21T23:12:18.764Z,98518.48
2023-03-21T23:14:22.510Z,98515.40
2023-03-21T23:16:28.240Z,98516.40
2023-03-21T23:18:33.758Z,98515.14
2023-03-21T23:20:36.912Z,98516.02
2023-03-21T23:22:40.493Z,98515.39
2023-03-21T23:24:43.758Z,98516.02
2023-03-21T23:26:46.594Z,98509.45
2023-03-21T23:28:50.145Z,98512.15
2023-03-21T23:30:53.026Z,98510.94
2023-03-21T23:32:56.191Z,98513.07
2023-03-21T23:34:59.488Z,98513.16
2023-03-21T23:37:02.299Z,98510.02
2023-03-21T23:39:04.912Z,98510.17
2023-03-21T23:41:09.944Z,98506.09
2023-03-21T23:43:12.628Z,98502.69
2023-03-21T23:45:15.629Z,98501.69
2023-03-21T23:47:19.304Z,98503.45
2023-03-21T23:49:22.179Z,98504.41
2023-03-21T23:51:24.748Z,98503.08
2023-03-21T23:53:27.462Z,98505.20
2023-03-21T23:55:31.773Z,98500.90
2023-03-21T23:57:35.131Z,98499.54
2023-03-21T23:59:37.599Z,98496.00
